createdAt,value
2022-11-24T00:02:46.847Z,-1.40
2022-11-24T00:07:08.883Z,-1.40
2022-11-24T00:11:35.381Z,-1.40
2022-11-24T00:16:25.923Z,-1.30
2022-11-24T00:20:54.109Z,-1.30
2022-11-24T00:25:16.151Z,-1.10
2022-11-24T00:29:37.900Z,-0.90
2022-11-24T00:34:12.430Z,-0.90
2022-11-24T00:38:34.476Z,-0.90
2022-11-24T00:42:56.653Z,-0.90
2022-11-24T00:47:18.652Z,-1.00
2022-11-24T00:51:40.549Z,-1.00
2022-11-24T00:56:05.766Z,-1.00
2022-11-24T01:00:30.623Z,-1.10
2022-11-24T01:04:52.515Z,-1.00
2022-11-24T01:09:17.168Z,-0.90
2022-11-24T01:13:40.442Z,-0.80
2022-11-24T01:18:02.935Z,-0.80
2022-11-24T01:22:26.496Z,-0.90
2022-11-24T01:26:48.177Z,-0.90
2022-11-24T01:31:10.881Z,-0.90
2022-11-24T01:35:32.740Z,-0.90
2022-11-24T01:39:54.685Z,-1.10
2022-11-24T01:44:23.551Z,-1.30
2022-11-24T01:49:19.834Z,-1.50
2022-11-24T01:53:48.542Z,-1.60
2022-11-24T01:58:24.319Z,-1.70
2022-11-24T02:02:46.548Z,-1.80
2022-11-24T02:07:09.742Z,-1.80
2022-11-24T02:11:38.163Z,-1.80
2022-11-24T02:16:00.848Z,-1.80
2022-11-24T02:20:23.135Z,-1.80
2022-11-24T02:25:07.711Z,-1.80
2022-11-24T02:29:29.782Z,-1.60
2022-11-24T02:33:51.803Z,-1.30
2022-11-24T02:38:14.428Z,-1.10
2022-11-24T02:42:43.123Z,-1.10
2022-11-24T02:47:11.948Z,-1.00
2022-11-24T02:51:34.570Z,-0.90
2022-11-24T02:55:56.385Z,-0.80
2022-11-24T03:00:18.991Z,-0.60
2022-11-24T03:04:40.983Z,-0.50
2022-11-24T03:09:03.035Z,-0.30
2022-11-24T03:13:24.910Z,-0.10
2022-11-24T03:17:46.905Z,0.10
2022-11-24T03:22:08.917Z,0.10
2022-11-24T03:26:30.975Z,0.20
2022-11-24T03:30:53.041Z,0.20
2022-11-24T03:35:15.480Z,0.30
2022-11-24T03:39:37.332Z,0.40
2022-11-24T03:43:59.304Z,0.60
2022-11-24T03:48:21.462Z,0.70
2022-11-24T03:52:43.719Z,0.80
2022-11-24T03:57:05.718Z,0.80
2022-11-24T04:01:27.751Z,0.90
2022-11-24T04:05:50.374Z,1.10
2022-11-24T04:10:12.798Z,1.20
2022-11-24T04:14:34.930Z,1.30
2022-11-24T04:18:57.091Z,1.50
2022-11-24T04:23:19.547Z,1.70
2022-11-24T04:27:41.500Z,1.80
2022-11-24T04:32:03.483Z,2.00
2022-11-24T04:36:25.433Z,2.10
2022-11-24T04:40:47.387Z,2.30
2022-11-24T04:45:11.112Z,2.40
2022-11-24T04:49:32.936Z,2.50
2022-11-24T04:53:54.806Z,2.50
2022-11-24T04:58:16.720Z,2.60
2022-11-24T05:02:38.714Z,2.70
2022-11-24T05:07:01.142Z,2.80
2022-11-24T05:11:22.868Z,2.90
2022-11-24T05:15:44.754Z,2.90
2022-11-24T05:20:08.442Z,3.00
2022-11-24T05:24:30.480Z,3.00
2022-11-24T05:28:52.577Z,3.10
2022-11-24T05:33:19.100Z,3.10
2022-11-24T05:37:41.085Z,3.10
2022-11-24T05:42:25.099Z,3.20
2022-11-24T05:46:47.068Z,3.20
2022-11-24T05:51:09.526Z,3.30
2022-11-24T05:55:32.011Z,3.30
2022-11-24T05:59:54.143Z,3.40
2022-11-24T06:04:16.434Z,3.40
2022-11-24T06:08:38.242Z,3.50
2022-11-24T06:13:04.288Z,3.50
2022-11-24T06:17:26.407Z,3.60
2022-11-24T06:21:48.539Z,3.60
2022-11-24T06:26:10.444Z,3.70
2022-11-24T06:30:32.516Z,3.70
2022-11-24T06:34:54.232Z,3.80
2022-11-24T06:39:16.318Z,3.80
2022-11-24T06:43:38.851Z,3.80
2022-11-24T06:48:00.846Z,3.90
2022-11-24T06:52:22.850Z,3.90
2022-11-24T06:56:44.854Z,4.00
2022-11-24T07:01:07.022Z,4.00
2022-11-24T07:05:29.207Z,4.10
2022-11-24T07:09:51.212Z,4.10
2022-11-24T07:14:13.141Z,4.10
2022-11-24T07:18:35.238Z,4.10
2022-11-24T07:22:58.228Z,4.10
2022-11-24T07:27:20.180Z,4.10
2022-11-24T07:31:42.712Z,4.10
2022-11-24T07:36:06.848Z,4.10
2022-11-24T07:40:28.616Z,4.20
2022-11-24T07:44:50.841Z,4.20
2022-11-24T07:49:12.988Z,4.30
2022-11-24T07:53:35.832Z,4.40
2022-11-24T07:58:01.545Z,4.40
2022-11-24T08:02:24.181Z,4.50
2022-11-24T08:06:47.563Z,4.50
2022-11-24T08:11:13.396Z,4.60
2022-11-24T08:15:35.270Z,4.60
2022-11-24T08:19:57.444Z,4.70
2022-11-24T08:24:19.205Z,4.80
2022-11-24T08:28:42.231Z,4.90
2022-11-24T08:33:04.112Z,5.00
2022-11-24T08:37:27.723Z,5.20
2022-11-24T08:41:49.520Z,5.30
2022-11-24T08:46:17.101Z,5.50
2022-11-24T08:50:39.017Z,5.90
2022-11-24T08:55:00.972Z,6.10
2022-11-24T08:59:22.916Z,6.30
2022-11-24T09:03:50.695Z,6.40
2022-11-24T09:08:13.043Z,6.50
2022-11-24T09:12:35.106Z,6.50
2022-11-24T09:16:57.070Z,6.50
2022-11-24T09:21:21.548Z,6.50
2022-11-24T09:25:43.679Z,6.70
2022-11-24T09:30:06.348Z,6.80
2022-11-24T09:34:28.297Z,7.10
2022-11-24T09:38:50.785Z,7.20
2022-11-24T09:43:54.312Z,7.30
2022-11-24T09:48:30.587Z,7.50
2022-11-24T09:53:34.426Z,7.60
2022-11-24T09:58:25.145Z,7.70
2022-11-24T10:02:50.516Z,7.80
2022-11-24T10:07:21.368Z,7.80
2022-11-24T10:11:57.777Z,7.80
2022-11-24T10:16:45.427Z,7.90
2022-11-24T10:21:24.843Z,7.80
2022-11-24T10:25:59.685Z,7.60
2022-11-24T10:30:24.066Z,7.60
2022-11-24T10:34:51.579Z,7.50
2022-11-24T10:39:39.354Z,7.30
2022-11-24T10:44:01.486Z,7.40
2022-11-24T10:48:28.394Z,7.60
2022-11-24T10:53:09.265Z,7.80
2022-11-24T10:57:40.154Z,8.00
2022-11-24T11:02:03.170Z,8.20
2022-11-24T11:06:29.132Z,8.50
2022-11-24T11:11:21.019Z,8.80
2022-11-24T11:15:43.231Z,9.00
2022-11-24T11:20:35.178Z,9.20
2022-11-24T11:25:03.339Z,9.40
2022-11-24T11:34:16.679Z,9.80
2022-11-24T11:38:45.066Z,10.10
2022-11-24T11:43:25.916Z,10.00
2022-11-24T11:48:03.120Z,10.00
2022-11-24T11:52:57.082Z,10.00
2022-11-24T11:57:42.656Z,10.00
2022-11-24T12:02:42.230Z,9.60
2022-11-24T12:07:31.388Z,9.60
2022-11-24T12:12:02.048Z,9.70
2022-11-24T12:16:56.976Z,9.80
2022-11-24T12:21:52.174Z,9.80
2022-11-24T12:26:24.319Z,9.80
2022-11-24T12:31:19.125Z,9.90
2022-11-24T12:35:56.031Z,10.00
2022-11-24T12:40:31.669Z,10.10
2022-11-24T12:45:09.011Z,10.10
2022-11-24T12:49:47.529Z,10.10
2022-11-24T12:54:21.689Z,10.20
2022-11-24T12:59:22.167Z,10.40
2022-11-24T13:04:20.288Z,10.80
2022-11-24T13:08:42.769Z,11.10
2022-11-24T13:13:10.972Z,11.20
2022-11-24T13:17:58.156Z,11.10
2022-11-24T13:22:26.635Z,11.10
2022-11-24T13:26:49.695Z,10.90
2022-11-24T13:31:22.619Z,10.60
2022-11-24T13:36:02.680Z,10.40
2022-11-24T13:40:26.499Z,10.20
2022-11-24T13:44:50.139Z,10.10
2022-11-24T13:49:14.643Z,10.00
2022-11-24T13:53:40.990Z,9.90
2022-11-24T13:58:11.846Z,9.70
2022-11-24T14:02:34.773Z,9.60
2022-11-24T14:07:09.158Z,9.30
2022-11-24T14:11:31.697Z,9.20
2022-11-24T14:16:09.819Z,9.00
2022-11-24T14:20:31.524Z,8.80
2022-11-24T14:24:59.389Z,8.70
2022-11-24T14:29:24.090Z,8.60
2022-11-24T14:33:45.925Z,8.60
2022-11-24T14:38:12.419Z,8.40
2022-11-24T14:42:34.095Z,8.20
2022-11-24T14:47:13.747Z,8.00
2022-11-24T14:51:38.357Z,7.80
2022-11-24T14:56:35.283Z,7.50
2022-11-24T15:01:19.874Z,7.30
2022-11-24T15:05:59.430Z,7.10
2022-11-24T15:10:37.674Z,7.00
2022-11-24T15:15:50.634Z,7.00
2022-11-24T15:20:43.084Z,7.10
2022-11-24T15:25:25.860Z,7.10
2022-11-24T15:29:47.741Z,7.10
2022-11-24T15:34:14.150Z,7.00
2022-11-24T15:38:41.188Z,6.90
2022-11-24T15:43:06.461Z,6.80
2022-11-24T15:47:28.341Z,6.80
2022-11-24T15:51:50.352Z,6.70
2022-11-24T15:56:22.337Z,6.80
2022-11-24T16:00:45.635Z,6.80
2022-11-24T16:05:08.580Z,6.80
2022-11-24T16:09:30.317Z,6.80
2022-11-24T16:13:54.249Z,6.80
2022-11-24T16:18:16.513Z,6.70
2022-11-24T16:22:38.298Z,6.60
2022-11-24T16:27:00.138Z,6.40
2022-11-24T16:31:22.443Z,6.40
2022-11-24T16:35:48.266Z,6.40
2022-11-24T16:40:10.962Z,6.40
2022-11-24T16:44:34.673Z,6.40
2022-11-24T16:49:03.762Z,6.40
2022-11-24T16:53:25.957Z,6.40
2022-11-24T16:57:48.569Z,6.50
2022-11-24T17:02:13.567Z,6.50
2022-11-24T17:06:35.847Z,6.50
2022-11-24T17:10:58.635Z,6.50
2022-11-24T17:15:42.823Z,6.50
2022-11-24T17:20:02.691Z,6.50
2022-11-24T17:24:24.655Z,6.40
2022-11-24T17:28:46.802Z,6.30
2022-11-24T17:33:08.895Z,6.30
2022-11-24T17:37:32.498Z,6.30
2022-11-24T17:41:55.385Z,6.20
2022-11-24T17:46:17.752Z,6.20
2022-11-24T17:50:39.508Z,6.20
2022-11-24T17:55:02.466Z,6.30
2022-11-24T17:59:24.339Z,6.20
2022-11-24T18:03:50.489Z,6.20
2022-11-24T18:08:15.624Z,6.20
2022-11-24T18:12:38.461Z,6.10
2022-11-24T18:17:04.631Z,6.10
2022-11-24T18:21:26.473Z,6.10
2022-11-24T18:25:54.781Z,6.20
2022-11-24T18:30:16.947Z,6.20
2022-11-24T18:34:39.000Z,6.20
2022-11-24T18:39:05.866Z,6.20
2022-11-24T18:43:29.338Z,6.20
2022-11-24T18:47:51.194Z,6.10
2022-11-24T18:52:13.513Z,5.90
2022-11-24T18:56:35.387Z,5.90
2022-11-24T19:01:20.518Z,6.00
2022-11-24T19:05:42.560Z,6.00
2022-11-24T19:10:04.895Z,6.10
2022-11-24T19:14:27.051Z,6.10
2022-11-24T19:18:53.637Z,6.10
2022-11-24T19:23:18.869Z,6.20
2022-11-24T19:27:41.233Z,6.20
2022-11-24T19:32:03.324Z,6.20
2022-11-24T19:36:26.550Z,6.20
2022-11-24T19:40:48.629Z,6.20
2022-11-24T19:45:11.140Z,6.20
2022-11-24T19:49:33.306Z,6.20
2022-11-24T19:53:55.715Z,6.20
2022-11-24T19:58:18.057Z,6.20
2022-11-24T20:02:39.746Z,6.20
2022-11-24T20:07:02.368Z,6.20
2022-11-24T20:11:24.724Z,6.20
2022-11-24T20:15:46.604Z,6.20
2022-11-24T20:20:08.961Z,6.20
2022-11-24T20:24:30.659Z,6.20
2022-11-24T20:28:56.694Z,6.20
2022-11-24T20:33:18.836Z,6.20
2022-11-24T20:37:40.894Z,6.20
2022-11-24T20:42:02.838Z,6.20
2022-11-24T20:46:29.379Z,6.10
2022-11-24T20:50:51.713Z,6.10
2022-11-24T20:55:13.794Z,6.00
2022-11-24T20:59:36.412Z,5.90
2022-11-24T21:04:00.722Z,5.90
2022-11-24T21:08:37.342Z,5.90
2022-11-24T21:13:06.213Z,5.90
2022-11-24T21:17:29.731Z,5.80
2022-11-24T21:21:51.695Z,5.70
2022-11-24T21:26:37.268Z,5.70
2022-11-24T21:31:11.569Z,5.70
2022-11-24T21:35:37.421Z,5.60
2022-11-24T21:39:59.348Z,5.60
2022-11-24T21:44:22.017Z,5.50
2022-11-24T21:48:44.708Z,5.50
2022-11-24T21:53:06.163Z,5.40
2022-11-24T21:57:28.876Z,5.40
2022-11-24T22:01:57.741Z,5.40
2022-11-24T22:06:21.482Z,5.40
2022-11-24T22:10:43.892Z,5.50
2022-11-24T22:15:06.546Z,5.50
2022-11-24T22:19:31.212Z,5.60
2022-11-24T22:23:53.271Z,5.60
2022-11-24T22:28:15.056Z,5.60
2022-11-24T22:32:37.101Z,5.50
2022-11-24T22:37:00.834Z,5.40
2022-11-24T22:41:23.027Z,5.40
2022-11-24T22:45:45.348Z,5.40
2022-11-24T22:50:08.228Z,5.30
2022-11-24T22:54:30.021Z,5.30
2022-11-24T22:58:52.174Z,5.40
2022-11-24T23:03:16.950Z,5.40
2022-11-24T23:07:40.902Z,5.40
2022-11-24T23:12:06.954Z,5.40
2022-11-24T23:16:29.364Z,5.40
2022-11-24T23:20:52.667Z,5.40
2022-11-24T23:25:14.676Z,5.40
2022-11-24T23:29:38.494Z,5.40
2022-11-24T23:34:05.029Z,5.30
2022-11-24T23:38:32.946Z,5.30
2022-11-24T23:42:56.983Z,5.40
2022-11-24T23:47:19.094Z,5.40
2022-11-24T23:51:42.115Z,5.40
2022-11-24T23:56:06.685Z,5.30
